createdAt,value
2018-12-25T00:00:42.592Z,102638.90
2018-12-25T00:03:09.735Z,102649.48
2018-12-25T00:05:36.625Z,102649.64
2018-12-25T00:08:03.529Z,102650.02
2018-12-25T00:10:30.455Z,102654.45
2018-12-25T00:12:57.376Z,102646.46
2018-12-25T00:15:24.324Z,102649.63
2018-12-25T00:17:51.237Z,102649.72
2018-12-25T00:20:18.202Z,102645.35
2018-12-25T00:22:45.104Z,102645.38
2018-12-25T00:25:11.981Z,102642.09
2018-12-25T00:27:38.968Z,102644.74
2018-12-25T00:30:06.739Z,102647.52
2018-12-25T00:32:33.692Z,102646.03
2018-12-25T00:35:00.595Z,102646.46
2018-12-25T00:37:27.516Z,102642.34
2018-12-25T00:39:54.556Z,102649.48
2018-12-25T00:42:21.512Z,102651.34
2018-12-25T00:44:48.471Z,102655.98
2018-12-25T00:47:15.384Z,102659.84
2018-12-25T00:49:42.276Z,102658.48
2018-12-25T00:52:09.192Z,102660.30
2018-12-25T00:54:36.088Z,102652.42
2018-12-25T00:57:03.031Z,102661.44
2018-12-25T00:59:29.917Z,102663.08
2018-12-25T01:01:56.865Z,102660.94
2018-12-25T01:04:23.767Z,102663.34
2018-12-25T01:06:50.694Z,102657.14
2018-12-25T01:09:17.673Z,102661.27
2018-12-25T01:11:44.615Z,102656.83
2018-12-25T01:14:11.566Z,102659.34
2018-12-25T01:16:38.625Z,102660.09
2018-12-25T01:19:05.599Z,102651.86
2018-12-25T01:21:32.515Z,102655.66
2018-12-25T01:23:59.445Z,102657.05
2018-12-25T01:26:26.333Z,102656.02
2018-12-25T01:28:53.390Z,102657.56
2018-12-25T01:31:20.328Z,102655.33
2018-12-25T01:33:47.301Z,102664.26
2018-12-25T01:36:14.249Z,102657.92
2018-12-25T01:38:41.205Z,102658.58
2018-12-25T01:41:08.119Z,102666.95
2018-12-25T01:43:35.097Z,102665.58
2018-12-25T01:46:01.992Z,102663.64
2018-12-25T01:48:28.930Z,102665.59
2018-12-25T01:50:55.812Z,102664.35
2018-12-25T01:53:22.783Z,102662.50
2018-12-25T01:55:49.691Z,102662.59
2018-12-25T01:58:16.616Z,102663.08
2018-12-25T02:00:43.550Z,102664.50
2018-12-25T02:03:10.563Z,102674.37
2018-12-25T02:05:37.502Z,102671.30
2018-12-25T02:08:04.405Z,102674.01
2018-12-25T02:10:31.345Z,102676.04
2018-12-25T02:12:58.236Z,102673.68
2018-12-25T02:15:25.193Z,102674.65
2018-12-25T02:17:52.095Z,102669.05
2018-12-25T02:20:19.020Z,102668.59
2018-12-25T02:22:45.926Z,102660.75
2018-12-25T02:25:12.868Z,102661.20
2018-12-25T02:27:39.760Z,102674.52
2018-12-25T02:30:06.694Z,102673.15
2018-12-25T02:32:33.590Z,102678.90
2018-12-25T02:35:00.495Z,102681.20
2018-12-25T02:37:27.421Z,102676.70
2018-12-25T02:39:54.366Z,102668.91
2018-12-25T02:42:21.228Z,102663.17
2018-12-25T02:44:48.291Z,102655.75
2018-12-25T02:47:15.192Z,102653.42
2018-12-25T02:49:50.152Z,102654.54
2018-12-25T02:52:10.920Z,102655.67
2018-12-25T02:54:37.824Z,102652.50
2018-12-25T02:57:04.778Z,102653.15
2018-12-25T02:59:31.667Z,102643.27
2018-12-25T03:01:58.634Z,102637.76
2018-12-25T03:04:25.528Z,102624.28
2018-12-25T03:06:52.485Z,102619.95
2018-12-25T03:09:19.369Z,102620.23
2018-12-25T03:11:46.301Z,102611.52
2018-12-25T03:14:13.205Z,102612.27
2018-12-25T03:16:40.141Z,102609.48
2018-12-25T03:19:07.048Z,102614.20
2018-12-25T03:21:33.986Z,102624.56
2018-12-25T03:24:00.908Z,102623.31
2018-12-25T03:26:27.921Z,102621.81
2018-12-25T03:28:54.808Z,102627.01
2018-12-25T03:31:21.759Z,102629.66
2018-12-25T03:33:48.779Z,102626.75
2018-12-25T03:36:15.706Z,102623.05
2018-12-25T03:38:42.642Z,102616.73
2018-12-25T03:41:09.675Z,102615.51
2018-12-25T03:43:36.617Z,102622.34
2018-12-25T03:46:03.528Z,102624.16
2018-12-25T03:48:30.428Z,102618.09
2018-12-25T03:50:57.363Z,102608.36
2018-12-25T03:53:24.254Z,102610.78
2018-12-25T03:55:51.198Z,102611.73
2018-12-25T03:58:18.316Z,102611.45
2018-12-25T04:00:45.255Z,102606.45
2018-12-25T04:03:12.138Z,102611.22
2018-12-25T04:05:39.073Z,102608.19
2018-12-25T04:08:06.002Z,102608.08
2018-12-25T04:10:32.910Z,102601.17
2018-12-25T04:12:59.828Z,102594.21
2018-12-25T04:15:26.872Z,102595.60
2018-12-25T04:17:53.786Z,102597.43
2018-12-25T04:20:20.722Z,102602.80
2018-12-25T04:22:47.644Z,102605.27
2018-12-25T04:25:14.676Z,102607.27
2018-12-25T04:27:41.634Z,102612.45
2018-12-25T04:30:08.526Z,102608.17
2018-12-25T04:32:35.445Z,102540.75
2018-12-25T04:35:02.363Z,102592.07
2018-12-25T04:37:29.288Z,102600.91
2018-12-25T04:39:56.176Z,102601.98
2018-12-25T04:42:23.115Z,102609.56
2018-12-25T04:44:50.053Z,102613.17
2018-12-25T04:47:16.977Z,102626.52
2018-12-25T04:49:43.913Z,102618.26
2018-12-25T04:52:10.850Z,102620.72
2018-12-25T04:54:37.742Z,102613.05
2018-12-25T04:57:04.654Z,102614.66
2018-12-25T04:59:31.591Z,102613.70
2018-12-25T05:01:58.478Z,102612.69
2018-12-25T05:04:25.415Z,102617.45
2018-12-25T05:06:52.316Z,102611.84
2018-12-25T05:09:19.338Z,102618.09
2018-12-25T05:11:46.243Z,102619.71
2018-12-25T05:14:13.184Z,102613.23
2018-12-25T05:16:40.076Z,102619.08
2018-12-25T05:19:07.009Z,102621.73
2018-12-25T05:21:33.907Z,102629.00
2018-12-25T05:24:00.841Z,102592.00
2018-12-25T05:26:27.746Z,102616.79
2018-12-25T05:28:54.690Z,102618.74
2018-12-25T05:31:21.660Z,102622.14
2018-12-25T05:33:48.594Z,102611.52
2018-12-25T05:36:15.497Z,102612.93
2018-12-25T05:38:42.681Z,102614.11
2018-12-25T05:41:09.574Z,102615.64
2018-12-25T05:43:36.543Z,102612.63
2018-12-25T05:46:03.434Z,102614.79
2018-12-25T05:48:30.585Z,102623.86
2018-12-25T05:50:57.487Z,102619.95
2018-12-25T05:53:24.430Z,102626.20
2018-12-25T05:55:51.319Z,102622.30
2018-12-25T05:58:18.253Z,102624.05
2018-12-25T06:00:45.152Z,102624.02
2018-12-25T06:03:12.178Z,102624.09
2018-12-25T06:05:39.087Z,102632.70
2018-12-25T06:08:05.977Z,102636.30
2018-12-25T06:10:32.902Z,102639.67
2018-12-25T06:12:59.796Z,102628.08
2018-12-25T06:15:26.748Z,102623.08
2018-12-25T06:17:53.648Z,102622.72
2018-12-25T06:20:20.589Z,102618.54
2018-12-25T06:22:47.491Z,102611.88
2018-12-25T06:25:14.631Z,102617.45
2018-12-25T06:27:41.540Z,102616.41
2018-12-25T06:30:08.480Z,102618.84
2018-12-25T06:32:35.365Z,102619.71
2018-12-25T06:35:02.324Z,102623.73
2018-12-25T06:37:29.285Z,102615.30
2018-12-25T06:39:56.241Z,102617.81
2018-12-25T06:42:23.107Z,102619.20
2018-12-25T06:44:50.094Z,102615.66
2018-12-25T06:47:16.992Z,102610.27
2018-12-25T06:49:43.959Z,102603.36
2018-12-25T06:52:10.846Z,102608.62
2018-12-25T06:54:39.427Z,102615.83
2018-12-25T06:57:06.459Z,102601.42
2018-12-25T06:59:33.485Z,102597.08
2018-12-25T07:02:00.390Z,102600.78
2018-12-25T07:04:27.324Z,102602.82
2018-12-25T07:06:56.333Z,102600.67
2018-12-25T07:09:23.275Z,102607.34
2018-12-25T07:11:50.220Z,102603.66
2018-12-25T07:14:17.125Z,102608.09
2018-12-25T07:16:44.073Z,102598.15
2018-12-25T07:19:10.983Z,102602.25
2018-12-25T07:21:37.910Z,102596.53
2018-12-25T07:24:04.806Z,102595.49
2018-12-25T07:26:31.764Z,102595.14
2018-12-25T07:28:58.667Z,102593.28
2018-12-25T07:31:25.601Z,102590.89
2018-12-25T07:33:52.492Z,102599.05
2018-12-25T07:36:19.441Z,102589.08
2018-12-25T07:38:46.343Z,102594.62
2018-12-25T07:41:13.311Z,102597.18
2018-12-25T07:43:40.242Z,102607.95
2018-12-25T07:46:07.169Z,102600.22
2018-12-25T07:48:34.359Z,102605.59
2018-12-25T07:51:01.296Z,102598.43
2018-12-25T07:53:28.206Z,102599.73
2018-12-25T07:55:55.146Z,102598.79
2018-12-25T07:58:22.080Z,102594.91
2018-12-25T08:00:49.020Z,102585.95
2018-12-25T08:03:15.924Z,102586.47
2018-12-25T08:05:42.859Z,102588.85
2018-12-25T08:08:09.759Z,102591.77
2018-12-25T08:10:36.708Z,102587.08
2018-12-25T08:13:03.616Z,102582.22
2018-12-25T08:15:30.528Z,102581.77
2018-12-25T08:17:57.472Z,102594.03
2018-12-25T08:20:24.369Z,102591.05
2018-12-25T08:22:51.298Z,102589.84
2018-12-25T08:25:18.218Z,102580.80
2018-12-25T08:27:45.142Z,102581.77
2018-12-25T08:30:12.032Z,102583.48
2018-12-25T08:32:38.994Z,102578.09
2018-12-25T08:35:06.180Z,102569.06
2018-12-25T08:37:33.117Z,102547.10
2018-12-25T08:40:00.017Z,102552.89
2018-12-25T08:42:27.059Z,102549.14
2018-12-25T08:44:54.132Z,102548.25
2018-12-25T08:47:21.247Z,102553.55
2018-12-25T08:49:50.222Z,102558.65
2018-12-25T08:52:17.256Z,102570.23
2018-12-25T08:54:44.168Z,102590.89
2018-12-25T08:57:11.166Z,102593.06
2018-12-25T08:59:38.087Z,102597.55
2018-12-25T09:02:05.031Z,102596.52
2018-12-25T09:04:31.966Z,102598.59
2018-12-25T09:06:58.951Z,102609.06
2018-12-25T09:09:25.873Z,102615.72
2018-12-25T09:11:52.853Z,102620.17
2018-12-25T09:14:19.760Z,102612.48
2018-12-25T09:16:46.693Z,102610.95
2018-12-25T09:19:13.604Z,102608.73
2018-12-25T09:21:46.113Z,102609.41
2018-12-25T09:24:09.388Z,102612.03
2018-12-25T09:26:36.293Z,102620.97
2018-12-25T09:29:03.220Z,102619.92
2018-12-25T09:31:30.128Z,102611.41
2018-12-25T09:33:57.057Z,102617.92
2018-12-25T09:36:23.954Z,102613.88
2018-12-25T09:38:50.910Z,102613.06
2018-12-25T09:41:17.855Z,102612.22
2018-12-25T09:43:44.837Z,102606.00
2018-12-25T09:46:11.734Z,102611.01
2018-12-25T09:48:38.770Z,102599.30
2018-12-25T09:51:05.878Z,102594.58
2018-12-25T09:53:32.826Z,102593.36
2018-12-25T09:55:59.733Z,102597.66
2018-12-25T09:58:26.698Z,102603.32
2018-12-25T10:00:53.601Z,102609.20
2018-12-25T10:03:20.559Z,102607.88
2018-12-25T10:05:47.537Z,102615.34
2018-12-25T10:08:14.554Z,102611.69
2018-12-25T10:10:41.460Z,102621.02
2018-12-25T10:13:08.405Z,102616.45
2018-12-25T10:15:35.323Z,102606.53
2018-12-25T10:18:02.262Z,102604.28
2018-12-25T10:20:29.258Z,102606.27
2018-12-25T10:22:56.290Z,102613.03
2018-12-25T10:25:23.199Z,102617.02
2018-12-25T10:27:50.123Z,102610.23
2018-12-25T10:30:17.093Z,102609.03
2018-12-25T10:32:45.423Z,102608.10
2018-12-25T10:35:12.563Z,102615.80
2018-12-25T10:37:40.537Z,102617.55
2018-12-25T10:40:07.610Z,102600.27
2018-12-25T10:42:34.518Z,102608.38
2018-12-25T10:45:01.491Z,102606.76
2018-12-25T10:47:28.410Z,102608.50
2018-12-25T10:49:55.395Z,102608.93
2018-12-25T10:52:22.326Z,102604.77
2018-12-25T10:54:49.259Z,102599.05
2018-12-25T10:57:16.164Z,102600.42
2018-12-25T10:59:43.116Z,102599.92
2018-12-25T11:02:10.044Z,102594.02
2018-12-25T11:04:37.037Z,102596.19
2018-12-25T11:07:03.964Z,102590.27
2018-12-25T11:09:30.922Z,102597.97
2018-12-25T11:11:57.839Z,102591.40
2018-12-25T11:14:24.809Z,102594.30
2018-12-25T11:16:51.715Z,102589.27
2018-12-25T11:19:18.672Z,102586.99
2018-12-25T11:21:45.589Z,102593.94
2018-12-25T11:24:12.541Z,102596.61
2018-12-25T11:26:39.450Z,102599.45
2018-12-25T11:29:06.359Z,102597.39
2018-12-25T11:31:33.338Z,102593.08
2018-12-25T11:34:00.222Z,102594.81
2018-12-25T11:36:27.195Z,102583.18
2018-12-25T11:38:54.130Z,102586.14
2018-12-25T11:41:21.063Z,102581.58
2018-12-25T11:43:48.183Z,102575.52
2018-12-25T11:46:15.121Z,102577.69
2018-12-25T11:48:42.029Z,102580.44
2018-12-25T11:51:08.999Z,102571.82
2018-12-25T11:53:35.972Z,102571.41
2018-12-25T11:56:02.903Z,102576.17
2018-12-25T11:58:29.825Z,102572.02
2018-12-25T12:00:56.806Z,102569.28
2018-12-25T12:03:23.700Z,102567.81
2018-12-25T12:05:50.647Z,102569.31
2018-12-25T12:08:17.564Z,102556.01
2018-12-25T12:10:44.502Z,102552.78
2018-12-25T12:13:11.420Z,102553.82
2018-12-25T12:15:38.350Z,102559.85
2018-12-25T12:18:05.252Z,102553.91
2018-12-25T12:20:32.213Z,102549.85
2018-12-25T12:22:59.132Z,102551.92
2018-12-25T12:25:26.059Z,102551.02
2018-12-25T12:27:53.108Z,102549.06
2018-12-25T12:30:20.025Z,102548.52
2018-12-25T12:32:46.965Z,102552.48
2018-12-25T12:35:13.866Z,102555.91
2018-12-25T12:37:40.810Z,102552.00
2018-12-25T12:40:07.801Z,102544.41
2018-12-25T12:42:34.777Z,102547.39
2018-12-25T12:45:01.744Z,102547.06
2018-12-25T12:47:28.718Z,102549.02
2018-12-25T12:49:55.662Z,102554.80
2018-12-25T12:52:22.609Z,102557.04
2018-12-25T12:54:49.637Z,102549.30
2018-12-25T12:57:16.834Z,102547.83
2018-12-25T12:59:43.755Z,102548.26
2018-12-25T13:02:10.683Z,102560.23
2018-12-25T13:04:37.594Z,102558.84
2018-12-25T13:07:04.602Z,102557.06
2018-12-25T13:09:36.241Z,102552.66
2018-12-25T13:12:03.180Z,102557.81
2018-12-25T13:14:30.111Z,102561.44
2018-12-25T13:16:57.230Z,102547.99
2018-12-25T13:19:24.131Z,102549.34
2018-12-25T13:21:51.036Z,102550.31
2018-12-25T13:24:18.036Z,102551.94
2018-12-25T13:26:44.966Z,102546.90
2018-12-25T13:29:12.124Z,102549.34
2018-12-25T13:31:39.050Z,102548.14
2018-12-25T13:34:05.991Z,102548.91
2018-12-25T13:36:32.910Z,102552.66
2018-12-25T13:39:00.019Z,102548.31
2018-12-25T13:41:26.961Z,102547.55
2018-12-25T13:43:53.952Z,102552.97
2018-12-25T13:46:20.932Z,102559.11
2018-12-25T13:48:47.901Z,102556.83
2018-12-25T13:51:14.814Z,102558.94
2018-12-25T13:53:41.895Z,102562.14
2018-12-25T13:56:08.814Z,102554.38
2018-12-25T13:58:35.767Z,102558.45
2018-12-25T14:01:02.683Z,102557.10
2018-12-25T14:03:29.627Z,102558.89
2018-12-25T14:05:56.596Z,102559.25
2018-12-25T14:08:23.690Z,102557.10
2018-12-25T14:10:50.720Z,102556.77
2018-12-25T14:13:17.680Z,102561.98
2018-12-25T14:15:44.592Z,102558.50
2018-12-25T14:18:11.529Z,102556.97
2018-12-25T14:20:38.450Z,102557.05
2018-12-25T14:23:11.235Z,102560.30
2018-12-25T14:25:34.222Z,102554.88
2018-12-25T14:28:01.217Z,102531.34
2018-12-25T14:30:28.142Z,102508.91
2018-12-25T14:32:55.137Z,102556.49
2018-12-25T14:35:22.074Z,102562.87
2018-12-25T14:37:49.346Z,102563.99
2018-12-25T14:40:16.371Z,102563.02
2018-12-25T14:42:43.311Z,102563.02
2018-12-25T14:45:10.358Z,102562.88
2018-12-25T14:47:37.286Z,102559.41
2018-12-25T14:50:04.971Z,102561.26
2018-12-25T14:52:31.881Z,102559.73
2018-12-25T14:54:58.804Z,102563.54
2018-12-25T14:57:25.732Z,102566.69
2018-12-25T14:59:52.682Z,102563.54
2018-12-25T15:02:19.620Z,102570.41
2018-12-25T15:04:46.568Z,102574.20
2018-12-25T15:07:13.477Z,102566.88
2018-12-25T15:09:40.412Z,102568.68
2018-12-25T15:12:07.328Z,102569.37
2018-12-25T15:14:34.267Z,102562.00
2018-12-25T15:17:01.177Z,102562.12
2018-12-25T15:19:28.118Z,102560.89
2018-12-25T15:21:55.061Z,102568.81
2018-12-25T15:24:21.976Z,102560.56
2018-12-25T15:26:48.919Z,102561.84
2018-12-25T15:29:15.825Z,102565.11
2018-12-25T15:31:42.778Z,102568.28
2018-12-25T15:34:09.700Z,102563.33
2018-12-25T15:36:36.634Z,102563.52
2018-12-25T15:39:07.031Z,102562.94
2018-12-25T15:41:34.003Z,102562.23
2018-12-25T15:44:00.920Z,102565.98
2018-12-25T15:46:27.864Z,102565.47
2018-12-25T15:48:54.773Z,102562.97
2018-12-25T15:51:21.712Z,102568.17
2018-12-25T15:53:50.446Z,102558.69
2018-12-25T15:56:17.479Z,102567.41
2018-12-25T15:58:44.386Z,102561.44
2018-12-25T16:01:11.338Z,102572.13
2018-12-25T16:03:38.251Z,102579.59
2018-12-25T16:06:05.442Z,102571.14
2018-12-25T16:08:32.369Z,102572.20
2018-12-25T16:10:59.378Z,102574.59
2018-12-25T16:13:26.309Z,102576.04
2018-12-25T16:15:53.257Z,102568.16
2018-12-25T16:18:20.172Z,102572.56
2018-12-25T16:20:47.121Z,102571.06
2018-12-25T16:23:14.059Z,102573.92
2018-12-25T16:25:40.999Z,102578.42
2018-12-25T16:28:08.174Z,102587.16
2018-12-25T16:30:35.152Z,102586.44
2018-12-25T16:33:02.081Z,102585.89
2018-12-25T16:35:28.994Z,102587.28
2018-12-25T16:37:55.954Z,102590.45
2018-12-25T16:40:22.990Z,102592.04
2018-12-25T16:42:49.950Z,102598.96
2018-12-25T16:45:18.141Z,102601.39
2018-12-25T16:47:45.206Z,102601.24
2018-12-25T16:50:12.127Z,102601.88
2018-12-25T16:52:39.072Z,102590.17
2018-12-25T16:55:06.265Z,102595.94
2018-12-25T16:57:33.401Z,102597.77
2018-12-25T17:00:00.348Z,102600.06
2018-12-25T17:02:27.216Z,102598.55
2018-12-25T17:04:54.133Z,102603.78
2018-12-25T17:07:21.205Z,102602.73
2018-12-25T17:09:48.141Z,102597.44
2018-12-25T17:12:15.070Z,102603.66
2018-12-25T17:14:42.008Z,102601.73
2018-12-25T17:17:09.187Z,102603.59
2018-12-25T17:19:36.640Z,102602.23
2018-12-25T17:22:05.883Z,102602.51
2018-12-25T17:24:32.812Z,102604.75
2018-12-25T17:26:59.766Z,102599.81
2018-12-25T17:29:26.696Z,102606.81
2018-12-25T17:31:53.793Z,102603.88
2018-12-25T17:34:20.730Z,102602.76
2018-12-25T17:36:47.649Z,102607.91
2018-12-25T17:39:14.733Z,102606.33
2018-12-25T17:41:42.405Z,102607.25
2018-12-25T17:44:09.482Z,102603.70
2018-12-25T17:46:36.507Z,102605.53
2018-12-25T17:49:03.479Z,102599.02
2018-12-25T17:51:30.511Z,102593.22
2018-12-25T17:53:57.881Z,102598.34
2018-12-25T17:56:25.026Z,102594.04
2018-12-25T17:58:52.255Z,102599.23
2018-12-25T18:01:19.533Z,102590.41
2018-12-25T18:03:46.624Z,102597.16
2018-12-25T18:06:13.569Z,102601.66
2018-12-25T18:08:40.646Z,102599.75
2018-12-25T18:11:07.723Z,102596.48
2018-12-25T18:13:34.743Z,102605.63
2018-12-25T18:16:01.684Z,102597.33
2018-12-25T18:18:28.632Z,102596.64
2018-12-25T18:20:55.557Z,102591.69
2018-12-25T18:23:22.509Z,102588.75
2018-12-25T18:25:51.121Z,102584.41
2018-12-25T18:28:18.278Z,102595.27
2018-12-25T18:30:45.488Z,102596.72
2018-12-25T18:33:12.402Z,102587.32
2018-12-25T18:35:39.344Z,102590.68
2018-12-25T18:38:06.341Z,102598.47
2018-12-25T18:40:33.326Z,102594.23
2018-12-25T18:43:00.238Z,102584.19
2018-12-25T18:45:27.183Z,102590.16
2018-12-25T18:47:54.948Z,102587.75
2018-12-25T18:50:21.881Z,102579.77
2018-12-25T18:52:48.790Z,102588.33
2018-12-25T18:55:16.023Z,102590.00
2018-12-25T18:57:42.950Z,102585.67
2018-12-25T19:00:10.255Z,102590.66
2018-12-25T19:02:37.191Z,102591.00
2018-12-25T19:05:04.159Z,102587.66
2018-12-25T19:07:31.087Z,102582.81
2018-12-25T19:09:58.149Z,102585.33
2018-12-25T19:12:25.193Z,102588.25
2018-12-25T19:15:19.999Z,102584.62
2018-12-25T19:17:47.122Z,102583.66
2018-12-25T19:20:14.088Z,102589.47
2018-12-25T19:22:41.199Z,102562.37
2018-12-25T19:25:08.177Z,102580.83
2018-12-25T19:27:35.087Z,102590.61
2018-12-25T19:30:02.211Z,102593.36
2018-12-25T19:32:29.195Z,102583.56
2018-12-25T19:34:56.275Z,102586.50
2018-12-25T19:37:23.253Z,102579.51
2018-12-25T19:39:50.270Z,102581.44
2018-12-25T19:42:17.211Z,102586.33
2018-12-25T19:44:44.198Z,102583.13
2018-12-25T19:47:11.125Z,102575.43
2018-12-25T19:49:38.107Z,102577.55
2018-12-25T19:52:05.063Z,102576.75
2018-12-25T19:54:32.255Z,102574.87
2018-12-25T19:56:59.272Z,102567.33
2018-12-25T19:59:26.213Z,102571.38
2018-12-25T20:01:53.216Z,102570.23
2018-12-25T20:04:53.608Z,102566.05
2018-12-25T20:08:11.278Z,102560.14
2018-12-25T20:11:23.535Z,102564.36
2018-12-25T20:14:32.125Z,102569.94
2018-12-25T20:17:43.807Z,102575.95
2018-12-25T20:20:47.404Z,102576.31
2018-12-25T20:23:37.209Z,102576.31
2018-12-25T20:26:49.329Z,102578.76
2018-12-25T20:30:03.123Z,102586.80
2018-12-25T20:33:13.905Z,102584.21
2018-12-25T20:36:02.969Z,102589.21
2018-12-25T20:39:03.007Z,102587.80
2018-12-25T20:42:12.981Z,102584.02
2018-12-25T20:45:20.919Z,102590.73
2018-12-25T20:48:24.470Z,102592.91
2018-12-25T20:51:39.310Z,102585.40
2018-12-25T20:55:01.098Z,102582.72
2018-12-25T20:58:04.103Z,102583.46
2018-12-25T21:01:03.228Z,102584.78
2018-12-25T21:04:07.608Z,102584.16
2018-12-25T21:07:24.579Z,102580.74
2018-12-25T21:10:26.136Z,102585.63
2018-12-25T21:13:26.464Z,102581.14
2018-12-25T21:16:35.651Z,102581.94
2018-12-25T21:20:02.842Z,102594.40
2018-12-25T21:23:16.707Z,102593.86
2018-12-25T21:26:20.392Z,102597.30
2018-12-25T21:28:50.022Z,102587.97
2018-12-25T21:31:17.367Z,102580.86
2018-12-25T21:33:44.298Z,102579.48
2018-12-25T21:36:11.340Z,102581.98
2018-12-25T21:38:38.410Z,102473.43
2018-12-25T21:41:07.210Z,102573.98
2018-12-25T21:43:34.396Z,102578.95
2018-12-25T21:46:01.842Z,102573.36
2018-12-25T21:48:28.801Z,102573.95
2018-12-25T21:51:00.107Z,102568.74
2018-12-25T21:53:30.401Z,102572.23
2018-12-25T21:55:58.202Z,102569.89
2018-12-25T21:58:25.632Z,102570.77
2018-12-25T22:00:52.657Z,102565.16
2018-12-25T22:03:19.814Z,102563.86
2018-12-25T22:05:46.722Z,102571.11
2018-12-25T22:08:14.313Z,102567.36
2018-12-25T22:10:41.217Z,102572.46
2018-12-25T22:13:08.257Z,102567.70
2018-12-25T22:15:35.179Z,102561.31
2018-12-25T22:18:02.124Z,102560.25
2018-12-25T22:20:32.251Z,102560.50
2018-12-25T22:22:59.349Z,102577.39
2018-12-25T22:25:27.370Z,102569.67
2018-12-25T22:27:54.655Z,102572.66
2018-12-25T22:30:21.595Z,102567.52
2018-12-25T22:32:48.548Z,102561.23
2018-12-25T22:35:15.532Z,102570.64
2018-12-25T22:37:42.536Z,102571.45
2018-12-25T22:40:09.509Z,102577.72
2018-12-25T22:42:36.411Z,102570.91
2018-12-25T22:45:03.935Z,102572.36
2018-12-25T22:47:32.015Z,102566.39
2018-12-25T22:49:59.007Z,102570.61
2018-12-25T22:52:25.911Z,102578.33
2018-12-25T22:54:52.853Z,102575.02
2018-12-25T22:57:19.805Z,102574.34
2018-12-25T22:59:46.729Z,102575.95
2018-12-25T23:02:13.659Z,102579.48
2018-12-25T23:04:40.581Z,102578.03
2018-12-25T23:07:07.591Z,102568.27
2018-12-25T23:09:34.547Z,102575.50
2018-12-25T23:12:01.483Z,102572.27
2018-12-25T23:14:28.537Z,102565.61
2018-12-25T23:16:55.446Z,102570.00
2018-12-25T23:19:22.378Z,102562.84
2018-12-25T23:21:49.564Z,102565.70
2018-12-25T23:24:16.548Z,102563.08
2018-12-25T23:26:43.496Z,102560.24
2018-12-25T23:29:10.461Z,102560.58
2018-12-25T23:31:37.555Z,102563.47
2018-12-25T23:34:04.483Z,102561.45
2018-12-25T23:36:32.995Z,102555.70
2018-12-25T23:38:59.919Z,102553.31
2018-12-25T23:41:26.838Z,102554.55
2018-12-25T23:43:53.784Z,102548.04
2018-12-25T23:46:20.711Z,102552.83
2018-12-25T23:48:47.615Z,102550.96
2018-12-25T23:51:14.591Z,102550.06
2018-12-25T23:53:41.498Z,102554.38
2018-12-25T23:56:08.463Z,102553.03
2018-12-25T23:58:35.358Z,102550.48
